Weather at Oakridge Ranch Airport

Public forecast

Using degrees Fahrenheit for public forecast. Weather courtesy of forecast.io.

Closest aviation weather report (METAR) to Oakridge Ranch Airport

Closest report is Rogue Valley International Medford Airport, 8.1 nm (15.0 km) SW. Retrieved 2021/06/21 09:53 UTC (1 hour ago):

KMFR 210953Z AUTO 00000KT 10SM CLR 22/13 A2985 RMK AO2 SLP094 T02220133

Closest aviation forecast (TAF) to Oakridge Ranch Airport

Closest forecast is Rogue Valley International Medford Airport, 8.1 nm (15.0 km) SW. Retrieved 2021/06/21 06:45 UTC (4 hours ago):

TAF KMFR 210542Z 2106/2206 VRB03KT P6SM SKC FM212200 30012KT P6SM FEW100 SCT150 FM220400 34006KT P6SM SCT100 BKN150